createdAt,value
2023-01-16T00:01:08.413Z,99273.70
2023-01-16T00:03:36.155Z,99276.95
2023-01-16T00:06:04.088Z,99277.53
2023-01-16T00:08:32.020Z,99277.59
2023-01-16T00:11:00.188Z,99273.46
2023-01-16T00:13:27.993Z,99273.79
2023-01-16T00:15:55.783Z,99273.57
2023-01-16T00:18:23.480Z,99275.77
2023-01-16T00:20:51.213Z,99275.64
2023-01-16T00:23:18.851Z,99274.83
2023-01-16T00:25:46.650Z,99269.85
2023-01-16T00:28:14.690Z,99263.67
2023-01-16T00:30:43.076Z,99260.97
2023-01-16T00:33:10.782Z,99261.00
2023-01-16T00:35:39.415Z,99261.78
2023-01-16T00:38:07.299Z,99262.23
2023-01-16T00:40:35.004Z,99265.95
2023-01-16T00:43:02.877Z,99266.90
2023-01-16T00:45:30.698Z,99265.42
2023-01-16T00:47:59.014Z,99267.70
2023-01-16T00:50:26.941Z,99266.54
2023-01-16T00:52:55.728Z,99265.08
2023-01-16T00:55:23.839Z,99268.94
2023-01-16T00:57:51.595Z,99268.42
2023-01-16T01:00:21.788Z,99267.35
2023-01-16T01:02:49.977Z,99267.73
2023-01-16T01:05:18.831Z,99265.21
2023-01-16T01:07:46.912Z,99267.53
2023-01-16T01:10:14.633Z,99265.68
2023-01-16T01:12:42.356Z,99266.02
2023-01-16T01:15:10.124Z,99266.89
2023-01-16T01:17:37.991Z,99266.23
2023-01-16T01:20:07.080Z,99266.40
2023-01-16T01:22:34.767Z,99267.13
2023-01-16T01:25:02.527Z,99260.34
2023-01-16T01:27:30.180Z,99256.89
2023-01-16T01:29:57.848Z,99255.84
2023-01-16T01:32:25.488Z,99257.14
2023-01-16T01:34:53.162Z,99249.43
2023-01-16T01:37:20.739Z,99247.61
2023-01-16T01:39:48.451Z,99246.64
2023-01-16T01:42:35.115Z,99249.68
2023-01-16T01:45:23.297Z,99245.27
2023-01-16T01:48:13.922Z,99244.61
2023-01-16T01:51:06.459Z,99245.93
2023-01-16T01:53:44.308Z,99247.94
2023-01-16T01:56:34.157Z,99245.55
2023-01-16T01:59:11.382Z,99238.19
2023-01-16T02:01:39.862Z,99235.06
2023-01-16T02:04:15.872Z,99231.73
2023-01-16T02:06:51.887Z,99230.46
2023-01-16T02:09:21.933Z,99226.29
2023-01-16T02:12:00.675Z,99222.85
2023-01-16T02:14:32.532Z,99220.41
2023-01-16T02:17:38.548Z,99219.33
2023-01-16T02:20:24.181Z,99213.48
2023-01-16T02:23:30.683Z,99212.73
2023-01-16T02:27:07.889Z,99203.45
2023-01-16T02:30:12.198Z,99207.27
2023-01-16T02:33:18.444Z,99209.05
2023-01-16T02:35:54.923Z,99209.44
2023-01-16T02:38:52.612Z,99206.38
2023-01-16T02:41:51.631Z,99204.48
2023-01-16T02:44:43.322Z,99206.86
2023-01-16T02:47:22.723Z,99203.79
2023-01-16T02:49:54.240Z,99199.50
2023-01-16T02:52:44.093Z,99199.71
2023-01-16T02:55:13.822Z,99200.42
2023-01-16T02:57:50.305Z,99200.61
2023-01-16T03:00:19.820Z,99200.80
2023-01-16T03:02:47.815Z,99202.02
2023-01-16T03:05:16.039Z,99203.27
2023-01-16T03:08:03.892Z,99205.17
2023-01-16T03:11:05.254Z,99204.80
2023-01-16T03:14:20.677Z,99202.88
2023-01-16T03:16:54.577Z,99199.36
2023-01-16T03:20:11.401Z,99203.11
2023-01-16T03:22:52.290Z,99202.31
2023-01-16T03:25:41.713Z,99197.20
2023-01-16T03:28:29.697Z,99202.36
2023-01-16T03:31:26.544Z,99197.73
2023-01-16T03:34:42.071Z,99197.74
2023-01-16T03:37:25.823Z,99199.31
2023-01-16T03:40:04.029Z,99192.40
2023-01-16T03:42:42.808Z,99187.36
2023-01-16T03:45:21.757Z,99183.71
2023-01-16T03:48:23.036Z,99183.00
2023-01-16T03:50:59.916Z,99183.83
2023-01-16T03:53:36.937Z,99185.13
2023-01-16T03:56:22.916Z,99183.33
2023-01-16T03:58:55.008Z,99182.29
2023-01-16T04:02:21.281Z,99176.13
2023-01-16T04:05:28.066Z,99175.56
2023-01-16T04:08:15.393Z,99172.27
2023-01-16T04:10:46.840Z,99167.52
2023-01-16T04:13:23.300Z,99162.88
2023-01-16T04:15:56.436Z,99165.16
2023-01-16T04:18:34.828Z,99161.42
2023-01-16T04:21:07.897Z,99160.26
2023-01-16T04:23:36.757Z,99156.65
2023-01-16T04:26:04.773Z,99160.92
2023-01-16T04:28:32.444Z,99164.33
2023-01-16T04:31:00.200Z,99161.94
2023-01-16T04:33:27.932Z,99161.83
2023-01-16T04:35:55.633Z,99162.41
2023-01-16T04:38:25.276Z,99156.48
2023-01-16T04:40:55.735Z,99157.55
2023-01-16T04:43:23.525Z,99156.05
2023-01-16T04:45:51.213Z,99154.89
2023-01-16T04:48:18.964Z,99157.52
2023-01-16T04:50:49.859Z,99159.80
2023-01-16T04:53:17.480Z,99155.66
2023-01-16T04:55:45.242Z,99158.42
2023-01-16T04:58:12.922Z,99158.37
2023-01-16T05:00:40.642Z,99160.92
2023-01-16T05:03:08.390Z,99153.52
2023-01-16T05:05:39.253Z,99149.06
2023-01-16T05:08:19.474Z,99147.53
2023-01-16T05:10:47.100Z,99142.88
2023-01-16T05:13:14.842Z,99139.70
2023-01-16T05:15:44.853Z,99138.71
2023-01-16T05:18:13.889Z,99133.59
2023-01-16T05:20:41.552Z,99126.75
2023-01-16T05:23:11.174Z,99125.06
2023-01-16T05:25:39.507Z,99118.20
2023-01-16T05:28:07.500Z,99112.02
2023-01-16T05:30:36.358Z,99107.92
2023-01-16T05:33:05.199Z,99107.62
2023-01-16T05:35:33.257Z,99108.49
2023-01-16T05:38:00.935Z,99103.89
2023-01-16T05:40:28.651Z,99104.58
2023-01-16T05:42:56.446Z,99099.41
2023-01-16T05:45:24.150Z,99097.90
2023-01-16T05:47:52.083Z,99095.69
2023-01-16T05:50:19.850Z,99094.86
2023-01-16T05:52:50.545Z,99093.88
2023-01-16T05:55:18.350Z,99096.34
2023-01-16T05:57:46.118Z,99098.48
2023-01-16T06:00:15.327Z,99091.16
2023-01-16T06:02:43.539Z,99089.13
2023-01-16T06:05:11.404Z,99083.96
2023-01-16T06:07:39.394Z,99081.16
2023-01-16T06:10:08.052Z,99073.82
2023-01-16T06:12:35.811Z,99072.79
2023-01-16T06:15:04.463Z,99073.73
2023-01-16T06:17:32.163Z,99073.73
2023-01-16T06:19:59.889Z,99070.54
2023-01-16T06:22:27.549Z,99063.92
2023-01-16T06:24:55.211Z,99059.83
2023-01-16T06:27:23.178Z,99060.01
2023-01-16T06:29:50.979Z,99063.02
2023-01-16T06:32:19.924Z,99065.51
2023-01-16T06:34:47.634Z,99064.08
2023-01-16T06:37:15.348Z,99061.95
2023-01-16T06:39:43.065Z,99065.77
2023-01-16T06:42:10.926Z,99063.23
2023-01-16T06:44:38.677Z,99059.33
2023-01-16T06:47:07.228Z,99059.84
2023-01-16T06:49:35.021Z,99062.61
2023-01-16T06:52:05.387Z,99061.47
2023-01-16T06:54:33.186Z,99055.88
2023-01-16T06:57:00.928Z,99055.58
2023-01-16T06:59:28.690Z,99057.31
2023-01-16T07:01:56.445Z,99062.46
2023-01-16T07:04:25.507Z,99064.55
2023-01-16T07:06:53.314Z,99064.24
2023-01-16T07:09:28.824Z,99066.01
2023-01-16T07:11:56.644Z,99066.03
2023-01-16T07:14:43.052Z,99057.98
2023-01-16T07:17:31.013Z,99055.21
2023-01-16T07:20:17.551Z,99052.77
2023-01-16T07:22:46.152Z,99050.81
2023-01-16T07:25:26.871Z,99054.48
2023-01-16T07:27:54.714Z,99059.37
2023-01-16T07:30:22.974Z,99058.91
2023-01-16T07:32:51.055Z,99062.08
2023-01-16T07:35:18.981Z,99060.27
2023-01-16T07:37:47.001Z,99057.60
2023-01-16T07:40:14.889Z,99056.46
2023-01-16T07:42:42.688Z,99054.48
2023-01-16T07:45:12.093Z,99048.55
2023-01-16T07:47:39.971Z,99048.23
2023-01-16T07:50:09.777Z,99047.37
2023-01-16T07:52:37.623Z,99041.10
2023-01-16T07:55:06.921Z,99037.58
2023-01-16T07:57:37.845Z,99036.08
2023-01-16T08:00:10.626Z,99038.20
2023-01-16T08:02:42.433Z,99035.58
2023-01-16T08:05:11.296Z,99034.65
2023-01-16T08:07:39.199Z,99032.36
2023-01-16T08:10:07.553Z,99030.86
2023-01-16T08:12:38.687Z,99032.25
2023-01-16T08:15:07.642Z,99027.12
2023-01-16T08:17:40.881Z,99021.52
2023-01-16T08:20:10.454Z,99016.05
2023-01-16T08:22:50.657Z,99019.30
2023-01-16T08:25:24.669Z,99015.94
2023-01-16T08:27:52.752Z,99010.82
2023-01-16T08:30:20.707Z,99004.48
2023-01-16T08:32:48.538Z,98998.48
2023-01-16T08:35:16.472Z,98990.14
2023-01-16T08:37:50.476Z,98991.21
2023-01-16T08:40:20.030Z,98990.20
2023-01-16T08:43:06.705Z,98987.30
2023-01-16T08:45:55.037Z,98988.48
2023-01-16T08:48:45.050Z,98985.61
2023-01-16T08:51:24.777Z,98983.63
2023-01-16T08:53:55.481Z,98982.45
2023-01-16T08:56:23.690Z,98980.61
2023-01-16T08:58:51.495Z,98975.37
2023-01-16T09:01:19.760Z,98969.78
2023-01-16T09:03:47.523Z,98966.45
2023-01-16T09:06:15.319Z,98966.22
2023-01-16T09:08:43.107Z,98966.84
2023-01-16T09:11:29.747Z,98963.34
2023-01-16T09:14:00.718Z,98959.66
2023-01-16T09:16:28.537Z,98950.29
2023-01-16T09:18:56.454Z,98951.27
2023-01-16T09:21:25.025Z,98955.66
2023-01-16T09:23:53.017Z,98954.39
2023-01-16T09:26:20.854Z,98948.07
2023-01-16T09:28:48.728Z,98950.19
2023-01-16T09:31:16.841Z,98948.23
2023-01-16T09:33:45.184Z,98939.45
2023-01-16T09:36:13.679Z,98936.09
2023-01-16T09:38:41.674Z,98929.90
2023-01-16T09:41:35.421Z,98927.48
2023-01-16T09:44:08.138Z,98921.48
2023-01-16T09:46:43.074Z,98914.77
2023-01-16T09:49:28.713Z,98914.20
2023-01-16T09:52:29.891Z,98911.02
2023-01-16T09:55:23.787Z,98907.45
2023-01-16T09:58:12.479Z,98897.02
2023-01-16T10:00:40.256Z,98886.02
2023-01-16T10:03:09.337Z,98880.45
2023-01-16T10:05:57.709Z,98870.52
2023-01-16T10:08:45.384Z,98862.27
2023-01-16T10:11:33.272Z,98859.13
2023-01-16T10:14:13.013Z,98859.65
2023-01-16T10:16:50.477Z,98852.48
2023-01-16T10:19:41.290Z,98845.97
2023-01-16T10:22:54.309Z,98839.86
2023-01-16T10:25:47.496Z,98827.33
2023-01-16T10:28:44.249Z,98820.36
2023-01-16T10:31:47.557Z,98813.48
2023-01-16T10:34:23.464Z,98803.31
2023-01-16T10:36:58.514Z,98800.14
2023-01-16T10:39:38.210Z,98798.52
2023-01-16T10:42:24.718Z,98793.58
2023-01-16T10:45:38.534Z,98791.65
2023-01-16T10:48:33.133Z,98791.34
2023-01-16T10:51:02.226Z,98783.04
2023-01-16T10:53:32.827Z,98776.56
2023-01-16T10:56:01.577Z,98770.85
2023-01-16T10:58:33.361Z,98767.77
2023-01-16T11:01:20.728Z,98761.27
2023-01-16T11:03:52.044Z,98754.43
2023-01-16T11:06:27.411Z,98749.42
2023-01-16T11:09:16.892Z,98740.21
2023-01-16T11:12:05.220Z,98737.95
2023-01-16T11:15:00.677Z,98727.53
2023-01-16T11:17:54.967Z,98714.81
2023-01-16T11:20:34.707Z,98703.98
2023-01-16T11:23:22.247Z,98694.30
2023-01-16T11:25:53.943Z,98690.04
2023-01-16T11:28:28.817Z,98680.48
2023-01-16T11:31:08.077Z,98673.13
2023-01-16T11:33:44.994Z,98670.40
2023-01-16T11:36:17.360Z,98666.36
2023-01-16T11:38:48.172Z,98660.70
2023-01-16T11:41:27.218Z,98657.33
2023-01-16T11:44:40.711Z,98653.74
2023-01-16T11:47:27.642Z,98649.91
2023-01-16T11:49:56.333Z,98642.95
2023-01-16T11:52:30.395Z,98631.64
2023-01-16T11:55:05.314Z,98623.14
2023-01-16T11:57:51.099Z,98621.75
2023-01-16T12:00:57.961Z,98620.77
2023-01-16T12:03:50.319Z,98619.13
2023-01-16T12:06:34.615Z,98610.11
2023-01-16T12:09:36.474Z,98605.73
2023-01-16T12:12:28.349Z,98597.56
2023-01-16T12:15:03.787Z,98593.86
2023-01-16T12:18:18.974Z,98592.53
2023-01-16T12:21:04.283Z,98588.09
2023-01-16T12:24:05.821Z,98582.11
2023-01-16T12:26:46.409Z,98576.98
2023-01-16T12:29:38.820Z,98569.84
2023-01-16T12:32:17.740Z,98563.54
2023-01-16T12:35:27.233Z,98562.77
2023-01-16T12:38:21.095Z,98553.49
2023-01-16T12:41:56.706Z,98552.17
2023-01-16T12:44:47.304Z,98551.40
2023-01-16T12:47:31.189Z,98543.56
2023-01-16T12:50:40.924Z,98537.05
2023-01-16T12:53:15.839Z,98532.68
2023-01-16T12:56:14.426Z,98526.80
2023-01-16T12:58:50.124Z,98527.02
2023-01-16T13:01:25.903Z,98522.95
2023-01-16T13:04:02.935Z,98514.48
2023-01-16T13:07:06.956Z,98509.75
2023-01-16T13:10:20.760Z,98509.48
2023-01-16T13:13:08.825Z,98505.48
2023-01-16T13:15:42.091Z,98504.59
2023-01-16T13:18:34.367Z,98499.31
2023-01-16T13:21:08.159Z,98494.02
2023-01-16T13:23:47.736Z,98491.36
2023-01-16T13:26:18.944Z,98491.83
2023-01-16T13:29:01.755Z,98490.28
2023-01-16T13:31:57.601Z,98482.69
2023-01-16T13:34:46.644Z,98480.92
2023-01-16T13:37:53.927Z,98478.63
2023-01-16T13:40:52.444Z,98474.69
2023-01-16T13:44:10.282Z,98466.58
2023-01-16T13:46:38.871Z,98464.09
2023-01-16T13:49:09.859Z,98460.27
2023-01-16T13:51:45.062Z,98453.16
2023-01-16T13:54:22.294Z,98445.31
2023-01-16T13:57:23.944Z,98444.72
2023-01-16T13:59:58.411Z,98436.24
2023-01-16T14:02:38.749Z,98438.05
2023-01-16T14:05:50.767Z,98435.73
2023-01-16T14:09:06.602Z,98439.64
2023-01-16T14:11:58.224Z,98436.08
2023-01-16T14:15:07.829Z,98431.95
2023-01-16T14:17:54.186Z,98430.19
2023-01-16T14:20:48.325Z,98419.81
2023-01-16T14:23:41.615Z,98412.78
2023-01-16T14:26:20.951Z,98413.15
2023-01-16T14:28:55.871Z,98409.54
2023-01-16T14:31:33.945Z,98407.97
2023-01-16T14:34:02.343Z,98406.17
2023-01-16T14:36:34.876Z,98402.71
2023-01-16T14:39:03.010Z,98399.29
2023-01-16T14:41:51.583Z,98393.48
2023-01-16T14:44:40.349Z,98392.02
2023-01-16T14:48:05.234Z,98389.14
2023-01-16T14:51:14.000Z,98381.04
2023-01-16T14:54:15.790Z,98379.08
2023-01-16T14:56:48.252Z,98370.60
2023-01-16T14:59:40.772Z,98368.75
2023-01-16T15:02:38.523Z,98365.20
2023-01-16T15:05:52.074Z,98361.07
2023-01-16T15:08:35.975Z,98356.14
2023-01-16T15:11:34.126Z,98352.66
2023-01-16T15:14:26.297Z,98345.63
2023-01-16T15:17:16.898Z,98340.93
2023-01-16T15:20:31.130Z,98340.43
2023-01-16T15:23:01.339Z,98340.90
2023-01-16T15:26:07.378Z,98344.29
2023-01-16T15:28:44.286Z,98341.42
2023-01-16T15:31:19.114Z,98338.31
2023-01-16T15:34:11.429Z,98334.78
2023-01-16T15:36:51.014Z,98331.57
2023-01-16T15:39:40.862Z,98330.84
2023-01-16T15:42:38.910Z,98327.89
2023-01-16T15:45:44.586Z,98322.98
2023-01-16T15:48:24.356Z,98316.25
2023-01-16T15:51:02.065Z,98315.02
2023-01-16T15:53:43.870Z,98312.44
2023-01-16T15:56:56.020Z,98312.25
2023-01-16T15:59:25.678Z,98308.92
2023-01-16T16:01:54.173Z,98307.13
2023-01-16T16:04:23.796Z,98303.58
2023-01-16T16:06:53.028Z,98300.95
2023-01-16T16:09:26.406Z,98291.90
2023-01-16T16:11:56.393Z,98287.00
2023-01-16T16:14:53.781Z,98283.28
2023-01-16T16:17:48.471Z,98275.49
2023-01-16T16:20:42.295Z,98270.87
2023-01-16T16:23:13.293Z,98266.97
2023-01-16T16:25:59.473Z,98263.66
2023-01-16T16:28:33.477Z,98264.28
2023-01-16T16:31:12.455Z,98264.17
2023-01-16T16:33:56.288Z,98258.56
2023-01-16T16:36:25.004Z,98256.48
2023-01-16T16:38:56.914Z,98247.84
2023-01-16T16:41:24.644Z,98247.28
2023-01-16T16:43:59.428Z,98244.11
2023-01-16T16:46:31.449Z,98239.90
2023-01-16T16:49:23.130Z,98234.95
2023-01-16T16:51:51.472Z,98231.74
2023-01-16T16:54:28.201Z,98228.83
2023-01-16T16:56:59.005Z,98224.59
2023-01-16T16:59:33.258Z,98219.40
2023-01-16T17:02:04.164Z,98221.13
2023-01-16T17:04:31.910Z,98223.38
2023-01-16T17:06:59.851Z,98220.42
2023-01-16T17:09:31.791Z,98217.95
2023-01-16T17:12:14.495Z,98214.48
2023-01-16T17:14:44.988Z,98215.58
2023-01-16T17:17:19.179Z,98211.98
2023-01-16T17:19:47.425Z,98211.27
2023-01-16T17:22:15.351Z,98207.96
2023-01-16T17:24:43.104Z,98203.00
2023-01-16T17:27:11.577Z,98200.17
2023-01-16T17:29:45.651Z,98197.55
2023-01-16T17:32:30.828Z,98195.38
2023-01-16T17:34:59.446Z,98193.55
2023-01-16T17:37:27.292Z,98190.83
2023-01-16T17:39:55.071Z,98190.14
2023-01-16T17:42:41.270Z,98185.45
2023-01-16T17:45:52.864Z,98188.44
2023-01-16T17:48:25.856Z,98185.88
2023-01-16T17:50:55.796Z,98180.41
2023-01-16T17:53:26.113Z,98175.79
2023-01-16T17:55:57.652Z,98171.25
2023-01-16T17:58:47.937Z,98161.45
2023-01-16T18:01:18.983Z,98160.58
2023-01-16T18:04:10.785Z,98160.68
2023-01-16T18:06:41.166Z,98157.97
2023-01-16T18:09:12.466Z,98153.84
2023-01-16T18:12:02.011Z,98153.70
2023-01-16T18:14:48.149Z,98151.06
2023-01-16T18:17:26.786Z,98143.45
2023-01-16T18:20:02.396Z,98139.91
2023-01-16T18:22:36.521Z,98142.16
2023-01-16T18:25:08.031Z,98138.71
2023-01-16T18:27:36.141Z,98132.45
2023-01-16T18:30:05.017Z,98127.05
2023-01-16T18:32:33.707Z,98124.94
2023-01-16T18:35:07.722Z,98119.80
2023-01-16T18:38:02.713Z,98115.99
2023-01-16T18:40:49.433Z,98116.84
2023-01-16T18:43:36.645Z,98114.09
2023-01-16T18:46:23.258Z,98110.05
2023-01-16T18:49:20.478Z,98106.17
2023-01-16T18:52:06.964Z,98107.40
2023-01-16T18:54:53.104Z,98107.58
2023-01-16T18:57:43.752Z,98096.73
2023-01-16T19:00:41.494Z,98088.23
2023-01-16T19:03:25.139Z,98082.30
2023-01-16T19:05:55.303Z,98077.61
2023-01-16T19:08:24.730Z,98073.38
2023-01-16T19:10:54.828Z,98068.23
2023-01-16T19:13:37.339Z,98058.90
2023-01-16T19:16:24.900Z,98051.92
2023-01-16T19:19:04.547Z,98045.24
2023-01-16T19:21:33.801Z,98044.57
2023-01-16T19:24:03.227Z,98037.22
2023-01-16T19:26:30.872Z,98028.53
2023-01-16T19:28:58.459Z,98022.02
2023-01-16T19:31:27.772Z,98012.67
2023-01-16T19:33:56.458Z,98007.11
2023-01-16T19:36:24.197Z,98006.66
2023-01-16T19:38:53.215Z,98002.98
2023-01-16T19:41:41.171Z,97999.72
2023-01-16T19:44:29.052Z,97997.66
2023-01-16T19:46:57.488Z,97988.11
2023-01-16T19:49:25.742Z,97983.17
2023-01-16T19:51:56.357Z,97977.05
2023-01-16T19:54:28.140Z,97974.92
2023-01-16T19:56:56.889Z,97969.77
2023-01-16T19:59:24.997Z,97968.07
2023-01-16T20:01:59.680Z,97971.77
2023-01-16T20:04:36.121Z,97970.35
2023-01-16T20:07:10.252Z,97965.84
2023-01-16T20:09:45.312Z,97963.27
2023-01-16T20:12:24.968Z,97960.56
2023-01-16T20:14:55.453Z,97957.50
2023-01-16T20:17:24.581Z,97954.51
2023-01-16T20:19:56.136Z,97947.94
2023-01-16T20:22:35.145Z,97942.61
2023-01-16T20:25:11.043Z,97936.07
2023-01-16T20:27:40.750Z,97929.33
2023-01-16T20:30:34.757Z,97921.73
2023-01-16T20:33:02.557Z,97918.31
2023-01-16T20:35:30.698Z,97916.06
2023-01-16T20:37:58.613Z,97906.44
2023-01-16T20:40:26.319Z,97903.21
2023-01-16T20:43:12.565Z,97898.29
2023-01-16T20:45:51.212Z,97894.00
2023-01-16T20:48:20.174Z,97887.45
2023-01-16T20:50:49.653Z,97882.00
2023-01-16T20:53:18.889Z,97883.29
2023-01-16T20:55:48.711Z,97884.86
2023-01-16T20:58:16.483Z,97889.52
2023-01-16T21:00:44.348Z,97900.84
2023-01-16T21:03:12.510Z,97896.23
2023-01-16T21:05:40.731Z,97892.70
2023-01-16T21:08:08.620Z,97885.78
2023-01-16T21:10:36.320Z,97878.59
2023-01-16T21:13:22.998Z,97882.77
2023-01-16T21:16:14.401Z,97883.08
2023-01-16T21:19:02.128Z,97882.79
2023-01-16T21:21:49.910Z,97879.26
2023-01-16T21:24:19.439Z,97875.42
2023-01-16T21:26:48.592Z,97865.95
2023-01-16T21:29:16.296Z,97856.92
2023-01-16T21:31:44.084Z,97845.81
2023-01-16T21:34:11.813Z,97852.94
2023-01-16T21:36:42.240Z,97858.60
2023-01-16T21:39:11.521Z,97861.32
2023-01-16T21:41:57.807Z,97860.39
2023-01-16T21:44:43.953Z,97858.31
2023-01-16T21:47:12.701Z,97853.25
2023-01-16T21:49:40.508Z,97850.89
2023-01-16T21:52:09.665Z,97846.84
2023-01-16T21:54:37.272Z,97842.88
2023-01-16T21:57:04.926Z,97841.50
2023-01-16T21:59:32.655Z,97843.13
2023-01-16T22:02:00.369Z,97842.77
2023-01-16T22:04:28.225Z,97842.11
2023-01-16T22:06:55.887Z,97842.41
2023-01-16T22:09:23.595Z,97837.36
2023-01-16T22:12:09.643Z,97833.56
2023-01-16T22:14:55.730Z,97830.83
2023-01-16T22:17:42.363Z,97822.42
2023-01-16T22:20:22.992Z,97816.77
2023-01-16T22:22:55.202Z,97815.60
2023-01-16T22:25:29.639Z,97811.98
2023-01-16T22:28:06.951Z,97806.35
2023-01-16T22:30:34.698Z,97796.20
2023-01-16T22:33:02.358Z,97789.59
2023-01-16T22:35:30.152Z,97784.53
2023-01-16T22:37:59.919Z,97779.80
2023-01-16T22:40:27.661Z,97775.08
2023-01-16T22:43:15.302Z,97774.61
2023-01-16T22:46:01.285Z,97776.23
2023-01-16T22:48:29.015Z,97771.60
2023-01-16T22:51:04.290Z,97765.08
2023-01-16T22:53:31.974Z,97763.25
2023-01-16T22:56:01.721Z,97755.06
2023-01-16T22:58:30.008Z,97755.93
2023-01-16T23:00:59.074Z,97756.00
2023-01-16T23:03:26.824Z,97750.48
2023-01-16T23:05:54.488Z,97747.94
2023-01-16T23:08:22.178Z,97737.75
2023-01-16T23:11:35.110Z,97729.05
2023-01-16T23:14:08.090Z,97716.89
2023-01-16T23:16:39.743Z,97707.00
2023-01-16T23:19:12.470Z,97703.80
2023-01-16T23:21:59.898Z,97702.23
2023-01-16T23:24:32.161Z,97695.48
2023-01-16T23:27:02.341Z,97689.71
2023-01-16T23:29:31.563Z,97686.11
2023-01-16T23:31:59.690Z,97684.05
2023-01-16T23:34:29.645Z,97683.13
2023-01-16T23:36:57.408Z,97681.13
2023-01-16T23:39:25.498Z,97667.19
2023-01-16T23:42:11.991Z,97658.22
2023-01-16T23:44:39.706Z,97643.58
2023-01-16T23:47:21.574Z,97634.46
2023-01-16T23:49:52.907Z,97632.38
2023-01-16T23:52:28.959Z,97627.72
2023-01-16T23:54:56.716Z,97629.48
2023-01-16T23:57:28.806Z,97626.80
2023-01-16T23:59:56.481Z,97614.42
